Terminal Aerodrome Forecast
Issued by NWS

Home | Current Version | Previous Version | Text Only | Print | Product List | Glossary On
Versions: 1 2 3 4 5 6 7 8 9 10 11 12 13 14
000
FTUS46 KMFR 212300 RRA
TAFLMT
TAF
KLMT 212342Z 2200/2224 21005KT P6SM SCT090 BKN200
     FM220600 16005KT P6SM SCT120 BKN200
     FM222000 18014G22KT P6SM BKN100 OVC150=

USA.gov is the U.S. government's official web portal to all federal, state and local government web resources and services.